Strona główna
METAR-TAF:

METAR-TAF

Lotnisko :

Dansville Municipal Airport

Dansville, Nowy Jork, Stany Zjednoczone

Szerokość geograficzna: 42-34-10N, Długość geograficzna: 077-42-52W, wysokość: 201 m

Aktualna obserwacja pogody

Raport powstał 55 minut temu, godzina 22:54 UTC
Wiatr 3 kt od zachodnio-północny zachód
Temperatura 12°C
Wilgotność 67%
Ciśnienie 1016 hPa
Widzialność: 16.1 km
Mało chmury na wysokości 3600 ft
Zachmurzenie całkowite na wysokości 7000 ft

METAR: KDSV 042254Z AUTO 30003KT 10SM FEW036 OVC070 12/06 A3000 RMK AO2 SLP168 T01220061

czas: 19:49 (23:49 UTC)


TAF: brakujący

Obserwacja i prognoza pogody dla ponad 4000 lotnisk (raport METAR i TAF).

Dostępne stacje oznaczono żółtymi i czerwonymi punktami na mapie.

Najedź kursorem aby zobaczyć nazwę stacji.

Kliknij aby zobaczyć obserwacje i prognozy pogody.

Aby zmienić mapę: kliknij na zielony przycisk z czarnym krzyżykiem, aby powiększyć; na zielony przycisk z myślnikiem, aby pomniejszyć; na zielone strzałki, aby przejść do map sąsiednich.


METAR-TAF: